createdAt,value
2022-12-22T00:01:38.094Z,38.55
2022-12-22T00:04:27.707Z,34.85
2022-12-22T00:07:13.796Z,35.00
2022-12-22T00:09:59.829Z,32.10
2022-12-22T00:12:47.929Z,33.35
2022-12-22T00:15:35.681Z,33.05
2022-12-22T00:18:22.395Z,33.83
2022-12-22T00:21:08.591Z,35.03
2022-12-22T00:23:54.439Z,34.20
2022-12-22T00:26:40.611Z,36.00
2022-12-22T00:29:33.512Z,29.83
2022-12-22T00:32:20.044Z,30.27
2022-12-22T00:35:06.687Z,30.95
2022-12-22T00:37:53.843Z,30.45
2022-12-22T00:40:47.232Z,35.03
2022-12-22T00:43:33.866Z,30.77
2022-12-22T00:46:23.013Z,30.58
2022-12-22T00:49:09.831Z,28.05
2022-12-22T00:51:55.526Z,28.20
2022-12-22T00:54:42.141Z,28.27
2022-12-22T00:57:34.982Z,29.02
2022-12-22T01:00:21.245Z,36.05
2022-12-22T01:03:09.123Z,32.33
2022-12-22T01:05:55.057Z,32.35
2022-12-22T01:08:40.712Z,34.00
2022-12-22T01:11:26.818Z,31.52
2022-12-22T01:14:12.890Z,30.88
2022-12-22T01:16:58.880Z,33.40
2022-12-22T01:19:46.341Z,32.38
2022-12-22T01:22:36.362Z,33.08
2022-12-22T01:25:30.561Z,34.25
2022-12-22T01:28:16.531Z,32.55
2022-12-22T01:31:04.437Z,31.92
2022-12-22T01:33:55.096Z,30.55
2022-12-22T01:36:43.091Z,28.30
2022-12-22T01:39:32.697Z,31.88
2022-12-22T01:42:24.211Z,32.80
2022-12-22T01:45:10.013Z,31.83
2022-12-22T01:47:56.567Z,31.65
2022-12-22T01:50:47.909Z,26.48
2022-12-22T01:53:38.934Z,30.40
2022-12-22T01:56:26.515Z,31.60
2022-12-22T01:59:18.951Z,31.85
2022-12-22T02:02:05.312Z,33.35
2022-12-22T02:04:56.439Z,31.42
2022-12-22T02:07:57.164Z,32.28
2022-12-22T02:11:07.639Z,34.67
2022-12-22T02:14:29.696Z,33.70
2022-12-22T02:17:26.041Z,31.45
2022-12-22T02:20:34.917Z,33.83
2022-12-22T02:23:33.631Z,32.15
2022-12-22T02:26:38.912Z,28.25
2022-12-22T02:29:26.453Z,29.50
2022-12-22T02:32:18.267Z,32.08
2022-12-22T02:35:05.558Z,33.55
2022-12-22T02:38:01.325Z,37.08
2022-12-22T02:40:54.273Z,35.88
2022-12-22T02:44:01.498Z,35.05
2022-12-22T02:46:53.818Z,37.00
2022-12-22T02:49:46.650Z,43.83
2022-12-22T02:52:36.729Z,41.33
2022-12-22T02:55:24.413Z,47.67
2022-12-22T02:58:10.744Z,34.85
2022-12-22T03:00:58.901Z,35.67
2022-12-22T03:03:45.060Z,33.90
2022-12-22T03:06:30.632Z,33.10
2022-12-22T03:09:16.160Z,28.85
2022-12-22T03:12:01.685Z,29.50
2022-12-22T03:14:47.474Z,30.92
2022-12-22T03:17:34.727Z,29.13
2022-12-22T03:20:20.881Z,36.03
2022-12-22T03:23:06.469Z,29.05
2022-12-22T03:25:54.245Z,26.52
2022-12-22T03:28:24.339Z,30.02
2022-12-22T03:30:57.730Z,29.30
2022-12-22T03:33:29.599Z,30.63
2022-12-22T03:35:58.756Z,30.42
2022-12-22T03:38:27.602Z,28.73
2022-12-22T03:40:56.130Z,34.17
2022-12-22T03:43:42.860Z,29.40
2022-12-22T03:46:30.589Z,28.52
2022-12-22T03:49:13.145Z,30.27
2022-12-22T03:51:45.092Z,28.30
2022-12-22T03:54:15.289Z,27.58
2022-12-22T03:56:44.461Z,28.88
2022-12-22T03:59:13.563Z,28.83
2022-12-22T04:01:43.551Z,28.80
2022-12-22T04:04:15.185Z,26.95
2022-12-22T04:06:44.082Z,29.10
2022-12-22T04:09:12.719Z,30.55
2022-12-22T04:11:59.621Z,30.35
2022-12-22T04:14:33.994Z,29.60
2022-12-22T04:17:03.499Z,27.48
2022-12-22T04:19:33.810Z,29.70
2022-12-22T04:22:02.851Z,27.23
2022-12-22T04:24:31.311Z,28.25
2022-12-22T04:26:59.608Z,28.80
2022-12-22T04:29:27.940Z,25.88
2022-12-22T04:31:56.577Z,24.55
2022-12-22T04:34:24.902Z,25.42
2022-12-22T04:36:54.889Z,26.92
2022-12-22T04:39:23.334Z,28.48
2022-12-22T04:41:52.168Z,29.95
2022-12-22T04:44:20.452Z,29.20
2022-12-22T04:46:48.809Z,29.75
2022-12-22T04:49:17.414Z,27.25
2022-12-22T04:51:45.709Z,30.52
2022-12-22T04:54:16.730Z,32.00
2022-12-22T04:56:45.548Z,33.20
2022-12-22T04:59:14.033Z,29.75
2022-12-22T05:01:42.645Z,26.50
2022-12-22T05:04:11.281Z,28.92
2022-12-22T05:06:40.521Z,27.00
2022-12-22T05:09:08.844Z,27.45
2022-12-22T05:11:39.094Z,26.10
2022-12-22T05:14:07.682Z,28.58
2022-12-22T05:16:36.366Z,29.98
2022-12-22T05:19:05.107Z,27.95
2022-12-22T05:21:33.561Z,26.83
2022-12-22T05:24:02.056Z,31.15
2022-12-22T05:26:30.455Z,26.88
2022-12-22T05:29:00.103Z,27.88
2022-12-22T05:31:29.368Z,30.17
2022-12-22T05:33:58.106Z,37.88
2022-12-22T05:36:26.416Z,35.83
2022-12-22T05:38:54.932Z,27.35
2022-12-22T05:41:24.113Z,29.92
2022-12-22T05:43:52.950Z,26.92
2022-12-22T05:46:23.783Z,31.08
2022-12-22T05:48:52.159Z,28.47
2022-12-22T05:51:20.490Z,26.40
2022-12-22T05:53:48.921Z,28.70
2022-12-22T05:56:17.249Z,29.85
2022-12-22T05:58:45.877Z,25.15
2022-12-22T06:01:14.208Z,28.75
2022-12-22T06:03:44.545Z,29.67
2022-12-22T06:06:12.990Z,27.67
2022-12-22T06:08:41.317Z,26.63
2022-12-22T06:11:09.853Z,28.17
2022-12-22T06:13:38.366Z,27.52
2022-12-22T06:16:07.041Z,29.38
2022-12-22T06:18:35.553Z,27.80
2022-12-22T06:21:05.696Z,29.70
2022-12-22T06:23:34.419Z,26.88
2022-12-22T06:26:03.683Z,28.95
2022-12-22T06:28:32.750Z,26.98
2022-12-22T06:31:01.352Z,35.20
2022-12-22T06:33:29.799Z,32.42
2022-12-22T06:35:59.495Z,30.77
2022-12-22T06:38:30.010Z,30.77
2022-12-22T06:40:58.519Z,27.73
2022-12-22T06:43:26.349Z,31.00
2022-12-22T06:45:55.057Z,33.45
2022-12-22T06:48:24.241Z,33.67
2022-12-22T06:50:53.194Z,31.40
2022-12-22T06:53:21.658Z,34.15
2022-12-22T06:55:51.416Z,35.78
2022-12-22T06:58:19.782Z,34.95
2022-12-22T07:00:49.953Z,33.22
2022-12-22T07:03:18.470Z,28.63
2022-12-22T07:05:47.030Z,28.52
2022-12-22T07:08:15.411Z,28.88
2022-12-22T07:11:01.660Z,28.90
2022-12-22T07:13:37.739Z,35.05
2022-12-22T07:16:08.416Z,36.25
2022-12-22T07:18:38.630Z,36.60
2022-12-22T07:21:08.811Z,33.22
2022-12-22T07:23:37.642Z,38.92
2022-12-22T07:26:06.778Z,37.00
2022-12-22T07:28:39.057Z,34.67
2022-12-22T07:33:36.031Z,31.77
2022-12-22T07:36:07.149Z,38.20
2022-12-22T07:38:37.902Z,36.72
2022-12-22T07:41:28.179Z,34.45
2022-12-22T07:43:58.431Z,37.83
2022-12-22T07:46:28.916Z,28.83
2022-12-22T07:49:15.076Z,36.38
2022-12-22T07:51:44.438Z,38.45
2022-12-22T07:54:15.363Z,39.22
2022-12-22T07:56:45.646Z,33.05
2022-12-22T07:59:16.103Z,35.28
2022-12-22T08:01:45.777Z,30.75
2022-12-22T08:04:15.688Z,33.33
2022-12-22T08:06:44.269Z,37.17
2022-12-22T08:09:16.283Z,35.55
2022-12-22T08:11:44.895Z,34.92
2022-12-22T08:14:13.496Z,31.13
2022-12-22T08:16:43.669Z,33.97
2022-12-22T08:19:12.547Z,37.33
2022-12-22T08:21:44.223Z,36.17
2022-12-22T08:24:18.711Z,31.45
2022-12-22T08:26:50.857Z,34.80
2022-12-22T08:29:23.099Z,32.70
2022-12-22T08:32:13.548Z,33.22
2022-12-22T08:34:45.374Z,32.60
2022-12-22T08:37:18.135Z,29.38
2022-12-22T08:39:49.870Z,30.67
2022-12-22T08:42:20.106Z,35.15
2022-12-22T08:44:53.394Z,36.20
2022-12-22T08:47:25.009Z,32.60
2022-12-22T08:49:53.444Z,36.00
2022-12-22T08:52:21.920Z,33.67
2022-12-22T08:54:50.515Z,35.75
2022-12-22T08:57:19.062Z,40.53
2022-12-22T08:59:48.308Z,36.78
2022-12-22T09:02:16.926Z,34.90
2022-12-22T09:04:47.210Z,35.08
2022-12-22T09:07:16.214Z,35.90
2022-12-22T09:09:44.914Z,34.42
2022-12-22T09:12:13.319Z,37.63
2022-12-22T09:14:41.893Z,36.85
2022-12-22T09:17:10.344Z,45.25
2022-12-22T09:19:38.842Z,48.40
2022-12-22T09:22:09.546Z,42.67
2022-12-22T09:24:38.032Z,46.30
2022-12-22T09:27:06.786Z,40.88
2022-12-22T09:29:35.300Z,43.00
2022-12-22T09:32:04.167Z,45.03
2022-12-22T09:34:32.976Z,43.30
2022-12-22T09:37:01.619Z,37.13
2022-12-22T09:39:32.174Z,39.58
2022-12-22T09:42:02.159Z,38.78
2022-12-22T09:44:34.756Z,34.47
2022-12-22T09:47:05.934Z,36.92
2022-12-22T09:49:34.730Z,36.95
2022-12-22T09:52:05.753Z,36.45
2022-12-22T09:54:35.785Z,34.97
2022-12-22T09:57:07.989Z,40.75
2022-12-22T10:02:18.638Z,33.38
2022-12-22T10:05:18.941Z,39.22
2022-12-22T10:07:47.763Z,35.22
2022-12-22T10:10:25.494Z,38.38
2022-12-22T10:12:56.530Z,39.72
2022-12-22T10:15:26.028Z,36.90
2022-12-22T10:18:09.205Z,35.40
2022-12-22T10:20:40.019Z,33.60
2022-12-22T10:23:18.620Z,37.95
2022-12-22T10:28:59.836Z,35.50
2022-12-22T10:31:29.843Z,34.03
2022-12-22T10:34:11.961Z,34.55
2022-12-22T10:36:42.429Z,29.77
2022-12-22T10:39:13.254Z,42.80
2022-12-22T10:41:46.066Z,37.20
2022-12-22T10:44:24.327Z,35.85
2022-12-22T10:46:54.526Z,36.92
2022-12-22T10:49:25.955Z,37.67
2022-12-22T10:51:57.190Z,32.55
2022-12-22T10:54:34.268Z,35.15
2022-12-22T10:57:08.074Z,33.05
2022-12-22T10:59:49.352Z,31.70
2022-12-22T11:02:38.237Z,38.03
2022-12-22T11:05:09.993Z,33.88
2022-12-22T11:07:40.975Z,37.03
2022-12-22T11:10:18.685Z,31.10
2022-12-22T11:13:12.041Z,31.30
2022-12-22T11:15:46.750Z,34.08
2022-12-22T11:18:28.046Z,29.83
2022-12-22T11:21:02.637Z,30.75
2022-12-22T11:23:38.205Z,27.67
2022-12-22T11:26:15.215Z,26.73
2022-12-22T11:29:15.443Z,28.23
2022-12-22T11:31:58.875Z,28.77
2022-12-22T11:34:43.778Z,26.00
2022-12-22T11:37:27.663Z,27.70
2022-12-22T11:40:05.164Z,28.70
2022-12-22T11:42:48.831Z,27.27
2022-12-22T11:45:41.033Z,27.67
2022-12-22T11:48:36.407Z,27.85
2022-12-22T11:51:11.713Z,32.72
2022-12-22T11:54:14.248Z,30.63
2022-12-22T11:56:46.361Z,36.17
2022-12-22T11:59:31.385Z,39.78
2022-12-22T12:02:21.107Z,44.83
2022-12-22T12:05:12.719Z,34.35
2022-12-22T12:07:44.616Z,36.80
2022-12-22T12:12:54.186Z,33.67
2022-12-22T12:15:29.301Z,31.45
2022-12-22T12:18:32.344Z,31.10
2022-12-22T12:21:18.318Z,34.25
2022-12-22T12:24:03.199Z,34.70
2022-12-22T12:26:34.437Z,35.92
2022-12-22T12:29:12.763Z,34.92
2022-12-22T12:31:45.331Z,34.00
2022-12-22T12:34:18.493Z,36.75
2022-12-22T12:36:52.830Z,35.10
2022-12-22T12:39:30.694Z,36.28
2022-12-22T12:42:10.184Z,31.13
2022-12-22T12:44:39.797Z,29.58
2022-12-22T12:47:26.639Z,28.33
2022-12-22T12:50:01.071Z,33.75
2022-12-22T12:53:14.256Z,35.53
2022-12-22T12:56:10.601Z,36.58
2022-12-22T12:58:53.695Z,31.58
2022-12-22T13:01:57.247Z,31.08
2022-12-22T13:05:14.633Z,31.55
2022-12-22T13:08:14.647Z,26.27
2022-12-22T13:10:46.505Z,37.22
2022-12-22T13:13:53.671Z,46.13
2022-12-22T13:16:27.385Z,43.75
2022-12-22T13:19:00.151Z,46.55
2022-12-22T13:21:52.820Z,37.97
2022-12-22T13:24:31.056Z,41.28
2022-12-22T13:27:07.843Z,37.50
2022-12-22T13:29:45.416Z,33.47
2022-12-22T13:32:27.123Z,36.88
2022-12-22T13:35:30.489Z,33.67
2022-12-22T13:37:54.881Z,27.35
2022-12-22T13:40:26.185Z,32.72
2022-12-22T13:42:58.772Z,27.52
2022-12-22T13:45:37.783Z,27.33
2022-12-22T13:48:14.636Z,25.00
2022-12-22T13:50:46.763Z,29.48
2022-12-22T13:53:58.128Z,26.33
2022-12-22T13:56:16.253Z,32.42
2022-12-22T13:58:48.053Z,39.22
2022-12-22T14:01:19.564Z,37.38
2022-12-22T14:04:01.737Z,39.10
2022-12-22T14:06:33.150Z,37.42
2022-12-22T14:09:13.302Z,38.40
2022-12-22T14:11:51.021Z,39.90
2022-12-22T14:14:25.111Z,34.25
2022-12-22T14:16:56.693Z,30.83
2022-12-22T14:19:26.741Z,30.08
2022-12-22T14:22:05.070Z,30.90
2022-12-22T14:24:42.040Z,26.33
2022-12-22T14:27:20.557Z,24.90
2022-12-22T14:29:49.138Z,21.27
2022-12-22T14:32:34.793Z,25.15
2022-12-22T14:35:03.874Z,23.60
2022-12-22T14:37:33.308Z,25.75
2022-12-22T14:40:01.955Z,24.73
2022-12-22T14:42:33.669Z,20.02
2022-12-22T14:45:03.366Z,20.70
2022-12-22T14:47:31.775Z,22.83
2022-12-22T14:50:15.201Z,24.08
2022-12-22T14:52:46.849Z,25.02
2022-12-22T14:55:26.729Z,30.30
2022-12-22T14:57:59.787Z,36.65
2022-12-22T15:00:33.633Z,45.35
2022-12-22T15:03:04.515Z,42.45
2022-12-22T15:05:36.351Z,41.65
2022-12-22T15:13:20.143Z,32.53
2022-12-22T15:15:48.684Z,32.10
2022-12-22T15:18:17.390Z,28.92
2022-12-22T15:20:45.884Z,30.65
2022-12-22T15:23:17.163Z,28.13
2022-12-22T15:25:46.270Z,26.00
2022-12-22T15:28:16.074Z,27.70
2022-12-22T15:30:44.641Z,36.47
2022-12-22T15:33:15.427Z,33.80
2022-12-22T15:35:45.150Z,31.38
2022-12-22T15:38:15.866Z,29.30
2022-12-22T15:40:45.095Z,27.90
2022-12-22T15:43:55.647Z,26.50
2022-12-22T15:46:06.719Z,28.67
2022-12-22T15:48:37.581Z,29.65
2022-12-22T15:51:08.945Z,30.17
2022-12-22T15:53:38.564Z,28.67
2022-12-22T15:56:17.429Z,33.22
2022-12-22T15:58:48.337Z,30.77
2022-12-22T16:01:17.005Z,28.73
2022-12-22T16:03:45.662Z,29.58
2022-12-22T16:06:16.575Z,33.00
2022-12-22T16:08:49.778Z,28.33
2022-12-22T16:11:19.491Z,28.60
2022-12-22T16:13:50.658Z,32.22
2022-12-22T16:16:19.637Z,28.17
2022-12-22T16:18:48.225Z,51.78
2022-12-22T16:21:20.029Z,67.40
2022-12-22T16:26:20.566Z,62.47
2022-12-22T16:28:51.450Z,78.57
2022-12-22T16:31:22.825Z,74.90
2022-12-22T16:33:52.376Z,57.85
2022-12-22T16:36:21.180Z,39.60
2022-12-22T16:38:50.121Z,44.72
2022-12-22T16:41:24.521Z,49.85
2022-12-22T16:44:03.807Z,47.15
2022-12-22T16:46:38.055Z,59.08
2022-12-22T16:49:09.937Z,42.58
2022-12-22T16:54:17.354Z,45.70
2022-12-22T16:56:47.270Z,47.78
2022-12-22T16:59:17.761Z,38.53
2022-12-22T17:01:51.751Z,35.33
2022-12-22T17:04:24.536Z,36.00
2022-12-22T17:06:55.346Z,31.00
2022-12-22T17:09:27.411Z,30.45
2022-12-22T17:11:56.649Z,32.60
2022-12-22T17:14:32.736Z,30.48
2022-12-22T17:17:01.616Z,28.02
2022-12-22T17:19:30.270Z,29.83
2022-12-22T17:22:00.230Z,27.05
2022-12-22T17:24:29.538Z,35.45
2022-12-22T17:27:02.157Z,32.17
2022-12-22T17:29:32.463Z,32.88
2022-12-22T17:32:00.836Z,34.75
2022-12-22T17:34:29.508Z,33.67
2022-12-22T17:36:59.490Z,32.97
2022-12-22T17:39:28.502Z,35.85
2022-12-22T17:41:57.648Z,33.35
2022-12-22T17:44:28.253Z,36.45
2022-12-22T17:46:58.791Z,37.80
2022-12-22T17:49:27.506Z,34.25
2022-12-22T17:51:56.651Z,36.60
2022-12-22T17:54:27.520Z,33.35
2022-12-22T17:57:01.357Z,37.70
2022-12-22T17:59:30.240Z,35.20
2022-12-22T18:02:00.748Z,37.15
2022-12-22T18:04:29.530Z,36.97
2022-12-22T18:06:58.161Z,40.80
2022-12-22T18:09:27.971Z,40.20
2022-12-22T18:11:56.649Z,47.78
2022-12-22T18:14:25.186Z,54.53
2022-12-22T18:16:53.848Z,50.97
2022-12-22T18:19:23.701Z,48.72
2022-12-22T18:21:53.114Z,44.78
2022-12-22T18:24:21.553Z,44.25
2022-12-22T18:26:50.050Z,44.15
2022-12-22T18:29:19.245Z,42.15
2022-12-22T18:31:47.714Z,38.60
2022-12-22T18:34:16.251Z,37.15
2022-12-22T18:36:48.018Z,46.80
2022-12-22T18:39:19.213Z,41.45
2022-12-22T18:41:48.307Z,44.22
2022-12-22T18:44:17.450Z,45.08
2022-12-22T18:46:47.231Z,40.75
2022-12-22T18:49:16.123Z,39.90
2022-12-22T18:51:47.007Z,39.50
2022-12-22T18:54:24.169Z,38.30
2022-12-22T18:56:52.964Z,42.22
2022-12-22T18:59:26.272Z,50.08
2022-12-22T19:02:03.617Z,55.60
2022-12-22T19:04:32.466Z,54.67
2022-12-22T19:07:02.447Z,58.25
2022-12-22T19:09:31.186Z,73.13
2022-12-22T19:11:59.580Z,73.18
2022-12-22T19:14:28.208Z,82.47
2022-12-22T19:16:56.711Z,82.00
2022-12-22T19:19:25.104Z,77.03
2022-12-22T19:21:54.358Z,69.50
2022-12-22T19:24:24.095Z,56.50
2022-12-22T19:26:53.483Z,71.35
2022-12-22T19:29:22.281Z,78.18
2022-12-22T19:31:50.694Z,65.75
2022-12-22T19:34:21.693Z,65.47
2022-12-22T19:36:50.933Z,54.03
2022-12-22T19:39:19.448Z,56.40
2022-12-22T19:41:52.134Z,49.13
2022-12-22T19:44:23.570Z,47.67
2022-12-22T19:46:53.588Z,47.30
2022-12-22T19:49:24.389Z,49.08
2022-12-22T19:51:52.925Z,54.22
2022-12-22T19:54:21.376Z,51.47
2022-12-22T19:56:54.562Z,55.58
2022-12-22T19:59:35.694Z,68.45
2022-12-22T20:02:26.566Z,79.95
2022-12-22T20:04:56.735Z,89.88
2022-12-22T20:07:28.037Z,83.43
2022-12-22T20:09:56.743Z,99.68
2022-12-22T20:12:30.743Z,89.80
2022-12-22T20:14:59.176Z,79.30
2022-12-22T20:17:28.025Z,86.88
2022-12-22T20:19:56.298Z,85.47
2022-12-22T20:22:25.137Z,80.80
2022-12-22T20:24:55.215Z,66.60
2022-12-22T20:27:30.268Z,54.72
2022-12-22T20:29:58.918Z,54.10
2022-12-22T20:32:28.485Z,54.90
2022-12-22T20:34:57.390Z,47.47
2022-12-22T20:37:26.433Z,44.63
2022-12-22T20:39:54.977Z,40.03
2022-12-22T20:42:25.838Z,41.00
2022-12-22T20:45:03.813Z,36.88
2022-12-22T20:47:34.264Z,40.78
2022-12-22T20:50:02.885Z,37.38
2022-12-22T20:52:31.316Z,36.50
2022-12-22T20:54:59.868Z,37.58
2022-12-22T20:57:29.082Z,37.28
2022-12-22T20:59:58.941Z,29.30
2022-12-22T21:02:29.452Z,35.20
2022-12-22T21:04:58.547Z,39.23
2022-12-22T21:07:27.057Z,34.25
2022-12-22T21:09:55.574Z,31.98
2022-12-22T21:12:24.003Z,33.22
2022-12-22T21:14:53.731Z,32.28
2022-12-22T21:17:23.456Z,34.75
2022-12-22T21:19:52.819Z,33.53
2022-12-22T21:22:21.374Z,31.20
2022-12-22T21:24:49.850Z,30.92
2022-12-22T21:27:21.267Z,33.20
2022-12-22T21:29:49.644Z,33.78
2022-12-22T21:32:18.247Z,29.90
2022-12-22T21:34:48.094Z,32.92
2022-12-22T21:37:20.506Z,33.30
2022-12-22T21:39:49.402Z,33.20
2022-12-22T21:42:20.150Z,36.95
2022-12-22T21:44:48.727Z,34.03
2022-12-22T21:47:21.336Z,32.40
2022-12-22T21:49:51.132Z,35.17
2022-12-22T21:52:20.128Z,33.70
2022-12-22T21:54:48.514Z,38.78
2022-12-22T21:57:17.249Z,30.35
2022-12-22T21:59:45.796Z,51.45
2022-12-22T22:02:17.484Z,45.92
2022-12-22T22:07:25.439Z,50.20
2022-12-22T22:09:54.443Z,43.55
2022-12-22T22:12:37.324Z,37.60
2022-12-22T22:15:08.527Z,38.30
2022-12-22T22:17:37.399Z,41.95
2022-12-22T22:20:09.858Z,40.88
2022-12-22T22:22:39.503Z,40.90
2022-12-22T22:25:09.405Z,39.67
2022-12-22T22:27:41.804Z,34.35
2022-12-22T22:30:16.844Z,33.65
2022-12-22T22:32:45.771Z,36.65
2022-12-22T22:35:14.873Z,39.20
2022-12-22T22:37:45.861Z,29.40
2022-12-22T22:40:16.121Z,28.52
2022-12-22T22:42:44.586Z,27.55
2022-12-22T22:45:15.918Z,95.97
2022-12-22T22:47:44.401Z,28.77
2022-12-22T22:50:13.084Z,27.95
2022-12-22T22:52:41.667Z,23.67
2022-12-22T22:55:12.808Z,22.98
2022-12-22T22:57:41.321Z,22.67
2022-12-22T23:00:12.092Z,23.10
2022-12-22T23:02:41.006Z,23.45
2022-12-22T23:05:12.885Z,26.40
2022-12-22T23:07:43.987Z,25.48
2022-12-22T23:10:13.969Z,23.92
2022-12-22T23:12:42.355Z,22.67
2022-12-22T23:15:11.634Z,28.55
2022-12-22T23:17:40.298Z,28.45
2022-12-22T23:20:10.090Z,25.92
2022-12-22T23:22:38.966Z,33.88
2022-12-22T23:25:08.391Z,25.02
2022-12-22T23:27:38.398Z,26.95
2022-12-22T23:30:08.873Z,28.38
2022-12-22T23:32:37.351Z,29.98
2022-12-22T23:35:07.191Z,23.55
2022-12-22T23:37:35.557Z,31.40
2022-12-22T23:40:33.084Z,32.30
2022-12-22T23:42:57.021Z,23.95
2022-12-22T23:45:25.972Z,23.27
2022-12-22T23:47:54.475Z,27.50
2022-12-22T23:50:23.678Z,27.17
2022-12-22T23:52:52.843Z,27.40
2022-12-22T23:55:21.577Z,27.08
2022-12-22T23:57:51.836Z,29.85
